sensor_id;sensor_type;location;lat;lon;timestamp;pressure;altitude;pressure_sealevel;temperature;humidity
62791;BME280;48830;53.426;10.300;2023-02-12T00:02:05;103460.81;;;7.79;100.00
62791;BME280;48830;53.426;10.300;2023-02-12T00:04:30;103466.16;;;7.82;100.00
62791;BME280;48830;53.426;10.300;2023-02-12T00:06:56;103461.69;;;7.80;100.00
62791;BME280;48830;53.426;10.300;2023-02-12T00:09:21;103466.72;;;7.78;100.00
62791;BME280;48830;53.426;10.300;2023-02-12T00:11:46;103465.94;;;7.79;100.00
62791;BME280;48830;53.426;10.300;2023-02-12T00:14:12;103474.31;;;7.77;100.00
62791;BME280;48830;53.426;10.300;2023-02-12T00:16:37;103473.28;;;7.75;100.00
62791;BME280;48830;53.426;10.300;2023-02-12T00:19:03;103482.53;;;7.73;100.00
62791;BME280;48830;53.426;10.300;2023-02-12T00:21:28;103485.09;;;7.73;100.00
62791;BME280;48830;53.426;10.300;2023-02-12T00:23:54;103491.00;;;7.72;100.00
62791;BME280;48830;53.426;10.300;2023-02-12T00:26:20;103484.00;;;7.69;100.00
62791;BME280;48830;53.426;10.300;2023-02-12T00:28:49;103479.78;;;7.70;100.00
62791;BME280;48830;53.426;10.300;2023-02-12T00:31:20;103477.22;;;7.70;100.00
62791;BME280;48830;53.426;10.300;2023-02-12T00:33:46;103485.47;;;7.66;100.00
62791;BME280;48830;53.426;10.300;2023-02-12T00:36:15;103486.25;;;7.65;100.00
62791;BME280;48830;53.426;10.300;2023-02-12T00:38:41;103477.47;;;7.61;100.00
62791;BME280;48830;53.426;10.300;2023-02-12T00:41:08;103486.81;;;7.60;100.00
62791;BME280;48830;53.426;10.300;2023-02-12T00:43:33;103482.59;;;7.61;100.00
62791;BME280;48830;53.426;10.300;2023-02-12T00:45:59;103480.91;;;7.61;100.00
62791;BME280;48830;53.426;10.300;2023-02-12T00:48:25;103482.47;;;7.59;100.00
62791;BME280;48830;53.426;10.300;2023-02-12T00:50:51;103484.63;;;7.53;100.00
62791;BME280;48830;53.426;10.300;2023-02-12T00:53:16;103479.50;;;7.53;100.00
62791;BME280;48830;53.426;10.300;2023-02-12T00:55:42;103482.16;;;7.55;100.00
62791;BME280;48830;53.426;10.300;2023-02-12T00:58:08;103481.81;;;7.50;100.00
62791;BME280;48830;53.426;10.300;2023-02-12T01:00:34;103479.34;;;7.52;100.00
62791;BME280;48830;53.426;10.300;2023-02-12T01:03:00;103487.28;;;7.55;100.00
62791;BME280;48830;53.426;10.300;2023-02-12T01:05:25;103487.03;;;7.52;100.00
62791;BME280;48830;53.426;10.300;2023-02-12T01:07:52;103502.53;;;7.53;100.00
62791;BME280;48830;53.426;10.300;2023-02-12T01:10:18;103497.19;;;7.50;100.00
62791;BME280;48830;53.426;10.300;2023-02-12T01:12:45;103495.41;;;7.49;100.00
62791;BME280;48830;53.426;10.300;2023-02-12T01:15:12;103502.28;;;7.50;100.00
62791;BME280;48830;53.426;10.300;2023-02-12T01:17:37;103499.72;;;7.50;100.00
62791;BME280;48830;53.426;10.300;2023-02-12T01:20:04;103492.59;;;7.46;100.00
62791;BME280;48830;53.426;10.300;2023-02-12T01:22:35;103497.84;;;7.48;100.00
62791;BME280;48830;53.426;10.300;2023-02-12T01:25:01;103501.31;;;7.48;100.00
62791;BME280;48830;53.426;10.300;2023-02-12T01:27:27;103510.75;;;7.49;100.00
62791;BME280;48830;53.426;10.300;2023-02-12T01:29:54;103505.41;;;7.46;100.00
62791;BME280;48830;53.426;10.300;2023-02-12T01:32:20;103510.53;;;7.46;100.00
62791;BME280;48830;53.426;10.300;2023-02-12T01:34:45;103507.41;;;7.50;100.00
62791;BME280;48830;53.426;10.300;2023-02-12T01:37:11;103504.84;;;7.50;100.00
62791;BME280;48830;53.426;10.300;2023-02-12T01:39:36;103510.44;;;7.45;100.00
62791;BME280;48830;53.426;10.300;2023-02-12T01:42:03;103509.31;;;7.41;100.00
62791;BME280;48830;53.426;10.300;2023-02-12T01:44:30;103502.50;;;7.42;100.00
62791;BME280;48830;53.426;10.300;2023-02-12T01:46:58;103504.19;;;7.41;100.00
62791;BME280;48830;53.426;10.300;2023-02-12T01:49:35;103509.31;;;7.41;100.00
62791;BME280;48830;53.426;10.300;2023-02-12T01:52:13;103510.09;;;7.40;100.00
62791;BME280;48830;53.426;10.300;2023-02-12T01:54:40;103511.06;;;7.42;100.00
62791;BME280;48830;53.426;10.300;2023-02-12T01:57:07;103515.22;;;7.40;100.00
62791;BME280;48830;53.426;10.300;2023-02-12T01:59:35;103508.31;;;7.39;100.00
62791;BME280;48830;53.426;10.300;2023-02-12T02:02:03;103513.19;;;7.36;100.00
62791;BME280;48830;53.426;10.300;2023-02-12T02:04:32;103508.09;;;7.36;100.00
62791;BME280;48830;53.426;10.300;2023-02-12T02:07:03;103502.75;;;7.33;100.00
62791;BME280;48830;53.426;10.300;2023-02-12T02:09:32;103502.75;;;7.33;100.00
62791;BME280;48830;53.426;10.300;2023-02-12T02:12:00;103507.88;;;7.33;100.00
62791;BME280;48830;53.426;10.300;2023-02-12T02:14:45;103502.75;;;7.33;100.00
62791;BME280;48830;53.426;10.300;2023-02-12T02:31:25;103530.34;;;7.25;100.00
62791;BME280;48830;53.426;10.300;2023-02-12T02:39:50;103529.44;;;7.25;100.00
62791;BME280;48830;53.426;10.300;2023-02-12T02:42:24;103524.22;;;7.23;100.00
62791;BME280;48830;53.426;10.300;2023-02-12T02:45:07;103527.44;;;7.21;100.00
62791;BME280;48830;53.426;10.300;2023-02-12T02:47:41;103522.56;;;7.24;100.00
62791;BME280;48830;53.426;10.300;2023-02-12T02:50:13;103533.47;;;7.21;100.00
62791;BME280;48830;53.426;10.300;2023-02-12T02:52:49;103535.91;;;7.20;100.00
62791;BME280;48830;53.426;10.300;2023-02-12T02:55:19;103540.13;;;7.19;100.00
62791;BME280;48830;53.426;10.300;2023-02-12T03:00:19;103547.00;;;7.20;100.00
62791;BME280;48830;53.426;10.300;2023-02-12T03:02:54;103542.78;;;7.21;100.00
62791;BME280;48830;53.426;10.300;2023-02-12T03:05:28;103538.44;;;7.20;100.00
62791;BME280;48830;53.426;10.300;2023-02-12T03:08:02;103541.78;;;7.19;100.00
62791;BME280;48830;53.426;10.300;2023-02-12T03:10:33;103541.91;;;7.20;100.00
62791;BME280;48830;53.426;10.300;2023-02-12T03:13:13;103549.47;;;7.19;100.00
62791;BME280;48830;53.426;10.300;2023-02-12T03:15:46;103548.03;;;7.22;100.00
62791;BME280;48830;53.426;10.300;2023-02-12T03:18:23;103551.25;;;7.20;100.00
62791;BME280;48830;53.426;10.300;2023-02-12T03:20:56;103555.56;;;7.21;100.00
62791;BME280;48830;53.426;10.300;2023-02-12T03:23:26;103552.81;;;7.18;100.00
62791;BME280;48830;53.426;10.300;2023-02-12T03:26:16;103549.47;;;7.19;100.00
62791;BME280;48830;53.426;10.300;2023-02-12T03:28:45;103553.59;;;7.17;100.00
62791;BME280;48830;53.426;10.300;2023-02-12T03:36:56;103555.03;;;7.13;100.00
62791;BME280;48830;53.426;10.300;2023-02-12T03:40:07;103556.16;;;7.17;100.00
62791;BME280;48830;53.426;10.300;2023-02-12T03:42:50;103565.38;;;7.15;100.00
62791;BME280;48830;53.426;10.300;2023-02-12T03:45:44;103564.38;;;7.13;100.00
62791;BME280;48830;53.426;10.300;2023-02-12T03:50:59;103565.81;;;7.09;100.00
62791;BME280;48830;53.426;10.300;2023-02-12T03:53:28;103573.38;;;7.07;100.00
62791;BME280;48830;53.426;10.300;2023-02-12T03:55:59;103574.34;;;7.09;100.00
62791;BME280;48830;53.426;10.300;2023-02-12T03:58:28;103581.03;;;7.07;100.00
62791;BME280;48830;53.426;10.300;2023-02-12T04:00:56;103587.16;;;7.09;100.00
62791;BME280;48830;53.426;10.300;2023-02-12T04:03:22;103584.59;;;7.09;100.00
62791;BME280;48830;53.426;10.300;2023-02-12T04:05:48;103590.59;;;7.10;100.00
62791;BME280;48830;53.426;10.300;2023-02-12T04:08:14;103595.59;;;7.08;100.00
62791;BME280;48830;53.426;10.300;2023-02-12T04:13:41;103592.84;;;7.05;100.00
62791;BME280;48830;53.426;10.300;2023-02-12T04:18:43;103592.16;;;7.08;100.00
62791;BME280;48830;53.426;10.300;2023-02-12T04:21:42;103582.72;;;7.07;100.00
62791;BME280;48830;53.426;10.300;2023-02-12T04:24:27;103590.38;;;7.07;100.00
62791;BME280;48830;53.426;10.300;2023-02-12T04:29:43;103598.16;;;7.08;100.00
62791;BME280;48830;53.426;10.300;2023-02-12T04:32:40;103594.81;;;7.09;100.00
62791;BME280;48830;53.426;10.300;2023-02-12T04:35:50;103599.94;;;7.09;100.00
62791;BME280;48830;53.426;10.300;2023-02-12T04:38:25;103609.19;;;7.07;100.00
62791;BME280;48830;53.426;10.300;2023-02-12T04:40:52;103608.41;;;7.08;100.00
62791;BME280;48830;53.426;10.300;2023-02-12T04:43:29;103605.84;;;7.08;100.00
62791;BME280;48830;53.426;10.300;2023-02-12T04:45:55;103610.75;;;7.05;100.00
62791;BME280;48830;53.426;10.300;2023-02-12T04:48:20;103615.06;;;7.06;100.00
62791;BME280;48830;53.426;10.300;2023-02-12T04:50:46;103614.19;;;7.06;100.00
62791;BME280;48830;53.426;10.300;2023-02-12T04:53:12;103614.41;;;7.09;100.00
62791;BME280;48830;53.426;10.300;2023-02-12T04:55:37;103616.84;;;7.07;100.00
62791;BME280;48830;53.426;10.300;2023-02-12T04:58:04;103616.84;;;7.07;100.00
62791;BME280;48830;53.426;10.300;2023-02-12T05:00:29;103616.84;;;7.07;100.00
62791;BME280;48830;53.426;10.300;2023-02-12T05:02:55;103615.97;;;7.07;100.00
62791;BME280;48830;53.426;10.300;2023-02-12T05:05:20;103618.41;;;7.05;100.00
62791;BME280;48830;53.426;10.300;2023-02-12T05:07:46;103616.59;;;7.04;100.00
62791;BME280;48830;53.426;10.300;2023-02-12T05:10:12;103621.97;;;7.07;100.00
62791;BME280;48830;53.426;10.300;2023-02-12T05:12:38;103627.06;;;7.07;100.00
62791;BME280;48830;53.426;10.300;2023-02-12T05:15:03;103625.50;;;7.09;100.00
62791;BME280;48830;53.426;10.300;2023-02-12T05:17:29;103627.44;;;7.12;100.00
62791;BME280;48830;53.426;10.300;2023-02-12T05:19:54;103630.00;;;7.12;100.00
62791;BME280;48830;53.426;10.300;2023-02-12T05:22:20;103632.66;;;7.14;100.00
62791;BME280;48830;53.426;10.300;2023-02-12T05:24:45;103629.31;;;7.15;100.00
62791;BME280;48830;53.426;10.300;2023-02-12T05:27:11;103621.63;;;7.15;100.00
62791;BME280;48830;53.426;10.300;2023-02-12T05:29:36;103621.53;;;7.13;100.00
62791;BME280;48830;53.426;10.300;2023-02-12T05:32:02;103612.88;;;7.11;100.00
62791;BME280;48830;53.426;10.300;2023-02-12T05:34:28;103619.97;;;7.15;100.00
62791;BME280;48830;53.426;10.300;2023-02-12T05:36:53;103611.41;;;7.15;100.00
62791;BME280;48830;53.426;10.300;2023-02-12T05:39:19;103622.41;;;7.14;100.00
62791;BME280;48830;53.426;10.300;2023-02-12T05:41:44;103611.31;;;7.13;100.00
62791;BME280;48830;53.426;10.300;2023-02-12T05:44:10;103611.06;;;7.10;100.00
62791;BME280;48830;53.426;10.300;2023-02-12T05:46:37;103625.50;;;7.09;100.00
62791;BME280;48830;53.426;10.300;2023-02-12T05:49:02;103619.31;;;7.06;100.00
62791;BME280;48830;53.426;10.300;2023-02-12T05:51:28;103621.72;;;7.04;100.00
62791;BME280;48830;53.426;10.300;2023-02-12T05:53:59;103629.88;;;7.10;100.00
62791;BME280;48830;53.426;10.300;2023-02-12T05:56:27;103632.66;;;7.14;100.00
62791;BME280;48830;53.426;10.300;2023-02-12T05:59:39;103630.19;;;7.15;100.00
62791;BME280;48830;53.426;10.300;2023-02-12T06:01:48;103620.66;;;7.13;100.00
62791;BME280;48830;53.426;10.300;2023-02-12T06:04:17;103630.97;;;7.14;100.00
62791;BME280;48830;53.426;10.300;2023-02-12T06:06:43;103633.78;;;7.17;100.00
62791;BME280;48830;53.426;10.300;2023-02-12T06:09:10;103630.09;;;7.14;100.00
62791;BME280;48830;53.426;10.300;2023-02-12T06:11:36;103636.63;;;7.10;100.00
62791;BME280;48830;53.426;10.300;2023-02-12T06:14:06;103635.63;;;7.08;100.00
62791;BME280;48830;53.426;10.300;2023-02-12T06:16:32;103637.06;;;7.04;100.00
62791;BME280;48830;53.426;10.300;2023-02-12T06:19:00;103641.00;;;7.11;100.00
62791;BME280;48830;53.426;10.300;2023-02-12T06:21:27;103642.78;;;7.12;100.00
62791;BME280;48830;53.426;10.300;2023-02-12T06:23:52;103646.22;;;7.13;100.00
62791;BME280;48830;53.426;10.300;2023-02-12T06:26:18;103656.56;;;7.14;100.00
62791;BME280;48830;53.426;10.300;2023-02-12T06:28:44;103653.13;;;7.14;100.00
62791;BME280;48830;53.426;10.300;2023-02-12T06:31:25;103656.03;;;7.18;100.00
62791;BME280;48830;53.426;10.300;2023-02-12T06:33:51;103660.16;;;7.16;100.00
62791;BME280;48830;53.426;10.300;2023-02-12T06:36:17;103653.13;;;7.14;100.00
62791;BME280;48830;53.426;10.300;2023-02-12T06:38:42;103658.22;;;7.14;100.00
62791;BME280;48830;53.426;10.300;2023-02-12T06:41:08;103663.59;;;7.17;100.00
62791;BME280;48830;53.426;10.300;2023-02-12T06:43:33;103665.13;;;7.15;100.00
62791;BME280;48830;53.426;10.300;2023-02-12T06:46:00;103664.34;;;7.16;100.00
62791;BME280;48830;53.426;10.300;2023-02-12T06:48:26;103666.16;;;7.17;100.00
62791;BME280;48830;53.426;10.300;2023-02-12T06:50:52;103666.69;;;7.13;100.00
62791;BME280;48830;53.426;10.300;2023-02-12T06:53:17;103668.25;;;7.10;100.00
62791;BME280;48830;53.426;10.300;2023-02-12T06:55:43;103671.81;;;7.13;100.00
62791;BME280;48830;53.426;10.300;2023-02-12T06:58:08;103674.25;;;7.11;100.00
62791;BME280;48830;53.426;10.300;2023-02-12T07:00:34;103680.13;;;7.10;100.00
62791;BME280;48830;53.426;10.300;2023-02-12T07:02:59;103676.66;;;7.09;100.00
62791;BME280;48830;53.426;10.300;2023-02-12T07:05:25;103680.25;;;7.12;100.00
62791;BME280;48830;53.426;10.300;2023-02-12T07:07:50;103675.78;;;7.09;100.00
62791;BME280;48830;53.426;10.300;2023-02-12T07:10:17;103685.22;;;7.10;100.00
62791;BME280;48830;53.426;10.300;2023-02-12T07:12:42;103680.00;;;7.08;100.00
62791;BME280;48830;53.426;10.300;2023-02-12T07:15:08;103689.34;;;7.08;100.00
62791;BME280;48830;53.426;10.300;2023-02-12T07:17:33;103694.03;;;7.14;100.00
62791;BME280;48830;53.426;10.300;2023-02-12T07:19:59;103686.59;;;7.05;100.00
62791;BME280;48830;53.426;10.300;2023-02-12T07:22:24;103690.34;;;7.10;100.00
62791;BME280;48830;53.426;10.300;2023-02-12T07:24:50;103694.28;;;7.17;100.00
62791;BME280;48830;53.426;10.300;2023-02-12T07:27:16;103696.59;;;7.14;100.00
62791;BME280;48830;53.426;10.300;2023-02-12T07:29:41;103701.41;;;7.21;100.00
62791;BME280;48830;53.426;10.300;2023-02-12T07:32:07;103704.19;;;7.24;100.00
62791;BME280;48830;53.426;10.300;2023-02-12T07:34:32;103703.41;;;7.25;100.00
62791;BME280;48830;53.426;10.300;2023-02-12T07:36:58;103698.53;;;7.28;100.00
62791;BME280;48830;53.426;10.300;2023-02-12T07:39:23;103707.09;;;7.28;100.00
62791;BME280;48830;53.426;10.300;2023-02-12T07:41:49;103699.88;;;7.34;100.00
62791;BME280;48830;53.426;10.300;2023-02-12T07:44:15;103697.56;;;7.38;100.00
62791;BME280;48830;53.426;10.300;2023-02-12T07:46:45;103700.25;;;7.39;100.00
62791;BME280;48830;53.426;10.300;2023-02-12T07:49:13;103703.69;;;7.40;100.00
62791;BME280;48830;53.426;10.300;2023-02-12T07:51:40;103696.91;;;7.40;100.00
62791;BME280;48830;53.426;10.300;2023-02-12T07:54:06;103700.13;;;7.38;100.00
62791;BME280;48830;53.426;10.300;2023-02-12T07:56:33;103703.22;;;7.33;100.00
62791;BME280;48830;53.426;10.300;2023-02-12T07:59:02;103703.88;;;7.31;100.00
62791;BME280;48830;53.426;10.300;2023-02-12T08:01:30;103701.47;;;7.32;100.00
62791;BME280;48830;53.426;10.300;2023-02-12T08:03:58;103706.34;;;7.41;100.00
62791;BME280;48830;53.426;10.300;2023-02-12T08:06:27;103713.72;;;7.48;100.00
62791;BME280;48830;53.426;10.300;2023-02-12T08:08:56;103715.50;;;7.49;100.00
62791;BME280;48830;53.426;10.300;2023-02-12T08:11:22;103717.28;;;7.50;100.00
62791;BME280;48830;53.426;10.300;2023-02-12T08:13:48;103717.53;;;7.53;100.00
62791;BME280;48830;53.426;10.300;2023-02-12T08:16:16;103716.66;;;7.65;100.00
62791;BME280;48830;53.426;10.300;2023-02-12T08:18:43;103716.22;;;7.70;100.00
62791;BME280;48830;53.426;10.300;2023-02-12T08:21:16;103720.13;;;7.77;100.00
62791;BME280;48830;53.426;10.300;2023-02-12T08:23:43;103731.34;;;7.79;100.00
62791;BME280;48830;53.426;10.300;2023-02-12T08:28:52;103738.47;;;7.83;100.00
62791;BME280;48830;53.426;10.300;2023-02-12T08:31:26;103735.13;;;7.84;100.00
62791;BME280;48830;53.426;10.300;2023-02-12T08:33:52;103738.94;;;7.89;100.00
62791;BME280;48830;53.426;10.300;2023-02-12T08:36:21;103739.97;;;7.91;100.00
62791;BME280;48830;53.426;10.300;2023-02-12T08:38:47;103738.94;;;7.89;100.00
62791;BME280;48830;53.426;10.300;2023-02-12T08:41:20;103746.06;;;7.93;100.00
62791;BME280;48830;53.426;10.300;2023-02-12T08:43:47;103745.53;;;7.97;100.00
62791;BME280;48830;53.426;10.300;2023-02-12T08:46:19;103746.28;;;7.96;100.00
62791;BME280;48830;53.426;10.300;2023-02-12T08:48:45;103748.63;;;8.05;100.00
62791;BME280;48830;53.426;10.300;2023-02-12T08:51:16;103751.44;;;8.08;100.00
62791;BME280;48830;53.426;10.300;2023-02-12T08:53:44;103750.97;;;8.13;100.00
62791;BME280;48830;53.426;10.300;2023-02-12T08:56:11;103749.41;;;8.15;100.00
62791;BME280;48830;53.426;10.300;2023-02-12T08:58:37;103747.84;;;8.18;100.00
62791;BME280;48830;53.426;10.300;2023-02-12T09:01:03;103752.50;;;8.23;100.00
62791;BME280;48830;53.426;10.300;2023-02-12T09:03:29;103758.31;;;8.21;100.00
62791;BME280;48830;53.426;10.300;2023-02-12T09:05:55;103760.34;;;8.25;100.00
62791;BME280;48830;53.426;10.300;2023-02-12T09:08:21;103760.09;;;8.22;100.00
62791;BME280;48830;53.426;10.300;2023-02-12T09:10:46;103754.53;;;8.27;100.00
62791;BME280;48830;53.426;10.300;2023-02-12T09:13:13;103761.66;;;8.31;100.00
62791;BME280;48830;53.426;10.300;2023-02-12T09:15:41;103756.63;;;8.33;100.00
62791;BME280;48830;53.426;10.300;2023-02-12T09:18:08;103760.38;;;8.36;100.00
62791;BME280;48830;53.426;10.300;2023-02-12T09:20:37;103755.78;;;8.44;100.00
62791;BME280;48830;53.426;10.300;2023-02-12T09:23:04;103758.81;;;8.50;100.00
62791;BME280;48830;53.426;10.300;2023-02-12T09:25:30;103764.13;;;8.53;100.00
62791;BME280;48830;53.426;10.300;2023-02-12T09:27:55;103773.03;;;8.58;100.00
62791;BME280;48830;53.426;10.300;2023-02-12T09:30:21;103771.47;;;8.60;100.00
62791;BME280;48830;53.426;10.300;2023-02-12T09:32:47;103770.72;;;8.61;100.00
62791;BME280;48830;53.426;10.300;2023-02-12T09:35:12;103771.25;;;8.69;100.00
62791;BME280;48830;53.426;10.300;2023-02-12T09:37:38;103769.88;;;8.74;100.00
62791;BME280;48830;53.426;10.300;2023-02-12T09:40:17;103775.38;;;8.67;100.00
62791;BME280;48830;53.426;10.300;2023-02-12T09:45:37;103780.59;;;8.68;100.00
62791;BME280;48830;53.426;10.300;2023-02-12T09:50:45;103789.84;;;8.78;100.00
62791;BME280;48830;53.426;10.300;2023-02-12T09:53:16;103793.50;;;8.82;100.00
62791;BME280;48830;53.426;10.300;2023-02-12T09:55:44;103788.59;;;8.85;100.00
62791;BME280;48830;53.426;10.300;2023-02-12T09:58:28;103792.75;;;8.83;100.00
62791;BME280;48830;53.426;10.300;2023-02-12T10:00:55;103796.84;;;8.81;100.00
62791;BME280;48830;53.426;10.300;2023-02-12T10:03:21;103792.75;;;8.83;100.00
62791;BME280;48830;53.426;10.300;2023-02-12T10:05:56;103795.31;;;8.83;100.00
62791;BME280;48830;53.426;10.300;2023-02-12T10:08:29;103798.16;;;8.87;100.00
62791;BME280;48830;53.426;10.300;2023-02-12T10:19:04;103801.66;;;8.88;100.00
62791;BME280;48830;53.426;10.300;2023-02-12T10:26:57;103798.91;;;8.98;100.00
62791;BME280;48830;53.426;10.300;2023-02-12T10:29:27;103804.25;;;9.13;100.00
62791;BME280;48830;53.426;10.300;2023-02-12T10:32:11;103799.25;;;9.03;100.00
62791;BME280;48830;53.426;10.300;2023-02-12T10:34:40;103801.81;;;9.03;100.00
62791;BME280;48830;53.426;10.300;2023-02-12T10:37:31;103797.25;;;9.10;100.00
62791;BME280;48830;53.426;10.300;2023-02-12T10:40:16;103797.28;;;9.24;100.00
62791;BME280;48830;53.426;10.300;2023-02-12T10:42:44;103795.88;;;9.15;100.00
62791;BME280;48830;53.426;10.300;2023-02-12T10:45:17;103792.09;;;9.10;100.00
62791;BME280;48830;53.426;10.300;2023-02-12T10:47:44;103787.41;;;9.16;100.00
62791;BME280;48830;53.426;10.300;2023-02-12T10:53:02;103782.31;;;9.30;100.00
62791;BME280;48830;53.426;10.300;2023-02-12T10:55:33;103784.31;;;9.34;100.00
62791;BME280;48830;53.426;10.300;2023-02-12T10:58:00;103787.66;;;9.33;100.00
62791;BME280;48830;53.426;10.300;2023-02-12T11:00:36;103792.22;;;9.37;100.00
62791;BME280;48830;53.426;10.300;2023-02-12T11:05:41;103783.72;;;9.38;100.00
62791;BME280;48830;53.426;10.300;2023-02-12T11:08:26;103777.00;;;9.40;100.00
62791;BME280;48830;53.426;10.300;2023-02-12T11:10:52;103775.00;;;9.36;100.00
62791;BME280;48830;53.426;10.300;2023-02-12T11:13:23;103788.00;;;9.51;100.00
62791;BME280;48830;53.426;10.300;2023-02-12T11:15:50;103776.66;;;9.47;100.00
62791;BME280;48830;53.426;10.300;2023-02-12T11:18:27;103766.16;;;9.69;100.00
62791;BME280;48830;53.426;10.300;2023-02-12T11:21:14;103775.72;;;9.58;100.00
62791;BME280;48830;53.426;10.300;2023-02-12T11:23:42;103774.03;;;9.59;100.00
62791;BME280;48830;53.426;10.300;2023-02-12T11:29:16;103774.22;;;9.62;100.00
62791;BME280;48830;53.426;10.300;2023-02-12T11:31:59;103775.31;;;9.65;100.00
62791;BME280;48830;53.426;10.300;2023-02-12T11:34:24;103778.03;;;9.80;100.00
62791;BME280;48830;53.426;10.300;2023-02-12T11:36:52;103780.59;;;9.80;100.00
62791;BME280;48830;53.426;10.300;2023-02-12T11:39:26;103781.66;;;9.84;100.00
62791;BME280;48830;53.426;10.300;2023-02-12T11:41:57;103771.38;;;9.84;100.00
62791;BME280;48830;53.426;10.300;2023-02-12T11:44:34;103775.38;;;9.92;100.00
62791;BME280;48830;53.426;10.300;2023-02-12T11:47:05;103769.03;;;9.87;100.00
62791;BME280;48830;53.426;10.300;2023-02-12T11:49:47;103762.00;;;9.84;100.00
62791;BME280;48830;53.426;10.300;2023-02-12T11:52:19;103757.97;;;9.88;100.00
62791;BME280;48830;53.426;10.300;2023-02-12T11:54:47;103763.09;;;9.88;100.00
62791;BME280;48830;53.426;10.300;2023-02-12T11:57:45;103755.41;;;9.88;100.00
62791;BME280;48830;53.426;10.300;2023-02-12T12:02:55;103755.97;;;9.84;100.00
62791;BME280;48830;53.426;10.300;2023-02-12T12:05:31;103756.69;;;9.81;100.00
62791;BME280;48830;53.426;10.300;2023-02-12T12:08:04;103763.38;;;9.79;100.00
62791;BME280;48830;53.426;10.300;2023-02-12T12:10:43;103764.06;;;9.77;100.00
62791;BME280;48830;53.426;10.300;2023-02-12T12:13:17;103759.56;;;9.86;100.00
62791;BME280;48830;53.426;10.300;2023-02-12T12:15:50;103747.84;;;9.64;100.00
62791;BME280;48830;53.426;10.300;2023-02-12T12:19:18;103751.22;;;9.77;100.00
62791;BME280;48830;53.426;10.300;2023-02-12T12:22:02;103748.88;;;9.80;100.00
62791;BME280;48830;53.426;10.300;2023-02-12T12:24:40;103741.66;;;9.87;100.00
62791;BME280;48830;53.426;10.300;2023-02-12T12:33:25;103736.03;;;9.93;100.00
62791;BME280;48830;53.426;10.300;2023-02-12T13:15:38;103697.69;;;10.09;100.00
62791;BME280;48830;53.426;10.300;2023-02-12T13:26:25;103709.44;;;9.92;100.00
62791;BME280;48830;53.426;10.300;2023-02-12T13:29:05;103695.00;;;9.94;100.00
62791;BME280;48830;53.426;10.300;2023-02-12T13:31:41;103703.59;;;9.95;100.00
62791;BME280;48830;53.426;10.300;2023-02-12T13:34:12;103696.91;;;9.97;100.00
62791;BME280;48830;53.426;10.300;2023-02-12T13:36:40;103703.81;;;9.98;100.00
62791;BME280;48830;53.426;10.300;2023-02-12T13:41:39;103700.47;;;9.86;100.00
62791;BME280;48830;53.426;10.300;2023-02-12T13:44:21;103697.69;;;9.83;100.00
62791;BME280;48830;53.426;10.300;2023-02-12T13:47:10;103697.78;;;9.84;100.00
62791;BME280;48830;53.426;10.300;2023-02-12T13:52:32;103695.63;;;9.90;100.00
62791;BME280;48830;53.426;10.300;2023-02-12T13:55:06;103691.16;;;9.88;100.00
62791;BME280;48830;53.426;10.300;2023-02-12T13:57:35;103685.53;;;9.93;100.00
62791;BME280;48830;53.426;10.300;2023-02-12T14:00:00;103695.00;;;9.94;100.00
62791;BME280;48830;53.426;10.300;2023-02-12T14:05:04;103686.81;;;9.87;100.00
62791;BME280;48830;53.426;10.300;2023-02-12T14:07:48;103689.56;;;9.90;100.00
62791;BME280;48830;53.426;10.300;2023-02-12T14:10:29;103677.72;;;9.92;100.00
62791;BME280;48830;53.426;10.300;2023-02-12T14:13:27;103674.28;;;9.91;100.00
62791;BME280;48830;53.426;10.300;2023-02-12T14:16:17;103684.25;;;9.87;100.00
62791;BME280;48830;53.426;10.300;2023-02-12T14:18:43;103682.28;;;9.83;100.00
62791;BME280;48830;53.426;10.300;2023-02-12T14:23:38;103684.22;;;9.73;100.00
62791;BME280;48830;53.426;10.300;2023-02-12T14:26:11;103683.47;;;9.75;100.00
62791;BME280;48830;53.426;10.300;2023-02-12T14:33:44;103692.25;;;9.65;100.00
62791;BME280;48830;53.426;10.300;2023-02-12T14:41:28;103694.28;;;9.57;100.00
62791;BME280;48830;53.426;10.300;2023-02-12T14:46:55;103693.41;;;9.57;100.00
62791;BME280;48830;53.426;10.300;2023-02-12T14:49:26;103692.44;;;9.55;100.00
62791;BME280;48830;53.426;10.300;2023-02-12T14:54:43;103698.53;;;9.57;100.00
62791;BME280;48830;53.426;10.300;2023-02-12T14:57:29;103699.25;;;9.54;100.00
62791;BME280;48830;53.426;10.300;2023-02-12T15:00:03;103687.69;;;9.48;100.00
62791;BME280;48830;53.426;10.300;2023-02-12T15:02:33;103693.00;;;9.51;100.00
62791;BME280;48830;53.426;10.300;2023-02-12T15:05:04;103691.72;;;9.44;100.00
62791;BME280;48830;53.426;10.300;2023-02-12T15:07:48;103697.25;;;9.37;100.00
62791;BME280;48830;53.426;10.300;2023-02-12T15:10:20;103689.53;;;9.37;100.00
62791;BME280;48830;53.426;10.300;2023-02-12T15:15:34;103696.81;;;9.31;100.00
62791;BME280;48830;53.426;10.300;2023-02-12T15:18:17;103702.63;;;9.28;100.00
62791;BME280;48830;53.426;10.300;2023-02-12T15:20:58;103699.19;;;9.28;100.00
62791;BME280;48830;53.426;10.300;2023-02-12T15:23:31;103703.22;;;9.24;100.00
62791;BME280;48830;53.426;10.300;2023-02-12T15:25:57;103704.78;;;9.22;100.00
62791;BME280;48830;53.426;10.300;2023-02-12T15:28:28;103705.47;;;9.19;100.00
62791;BME280;48830;53.426;10.300;2023-02-12T15:30:58;103695.41;;;9.23;100.00
62791;BME280;48830;53.426;10.300;2023-02-12T15:33:28;103698.78;;;9.22;100.00